Portada
METAR-TAF:

METAR-TAF

Aeroports :

Rarotonga, Illes Cook

latitud: 21-12S, longitud: 159-49W, altitud: 7 m

Observació

L'informe es va fer fa 24 minuts, a les 22:30 UTC
Vent 12 kt del Est/Nord-Est, variant entre Nord/Nord-Est i Est
Temperatura 24°C
Humitat 57%
Pressió 1019 hPa
Visibilitat 10 km o més

METAR: NCRG 152230Z AUTO 07012KT 020V100 9999 SCT039/// 24/15 Q1019

Hora: 12:54 (22:54 UTC)

Pronòstic

L'informe es va fer fa 5 hores i 39 minuts, a les 17:15 UTC
Pronòstic vàlid del 15 a les 18 UTC al 16 a les 18 UTC
Vent 6 kt del Est
Visibilitat 10 km o més
Núvols disperses a una alçada de 3000 ft
Núvols disperses a una alçada de 4800 ft

TAF: NCRG 151715Z 1518/1618 09006KT 9999 SCT030 SCT048

Observacions i pronòstics meteorològics de més de 4000 aeroports (METAR i TAF).

Les estacions disponibles són els punts grocs i vermells al mapa.

Posi el ratolí al punt desitjat per veure el nom de l'estació.

Feu clic per veure les observacions i els pronòstics meteorològics.

Per canviar el mapa: feu clic els botons verds amb una creu de color negre per apropar; al botó verd amb un guió per allunyar la imatge; o en les fletxes verdes per a mapes adjacents.


METAR-TAF: